sensor_id;sensor_type;location;lat;lon;timestamp;temperature;humidity
66144;SHT31;52947;50.842;6.084;2022-08-04T00:01:07;22.23;65.78
66144;SHT31;52947;50.842;6.084;2022-08-04T00:03:42;22.23;65.80
66144;SHT31;52947;50.842;6.084;2022-08-04T00:06:14;22.16;65.70
66144;SHT31;52947;50.842;6.084;2022-08-04T00:08:49;22.26;65.98
66144;SHT31;52947;50.842;6.084;2022-08-04T00:11:22;22.28;65.68
66144;SHT31;52947;50.842;6.084;2022-08-04T00:13:53;22.23;65.68
66144;SHT31;52947;50.842;6.084;2022-08-04T00:16:32;22.10;66.07
66144;SHT31;52947;50.842;6.084;2022-08-04T00:19:06;21.99;66.42
66144;SHT31;52947;50.842;6.084;2022-08-04T00:21:38;21.94;66.48
66144;SHT31;52947;50.842;6.084;2022-08-04T00:24:09;22.06;66.27
66144;SHT31;52947;50.842;6.084;2022-08-04T00:26:40;22.12;66.06
66144;SHT31;52947;50.842;6.084;2022-08-04T00:29:09;22.06;66.31
66144;SHT31;52947;50.842;6.084;2022-08-04T00:31:37;22.08;65.80
66144;SHT31;52947;50.842;6.084;2022-08-04T00:34:24;22.02;65.96
66144;SHT31;52947;50.842;6.084;2022-08-04T00:36:52;22.02;66.19
66144;SHT31;52947;50.842;6.084;2022-08-04T00:39:21;22.04;66.54
66144;SHT31;52947;50.842;6.084;2022-08-04T00:44:52;22.06;65.55
66144;SHT31;52947;50.842;6.084;2022-08-04T00:47:37;22.04;65.62
66144;SHT31;52947;50.842;6.084;2022-08-04T00:50:10;22.05;65.48
66144;SHT31;52947;50.842;6.084;2022-08-04T00:52:55;21.95;65.87
66144;SHT31;52947;50.842;6.084;2022-08-04T00:56:14;21.85;66.09
66144;SHT31;52947;50.842;6.084;2022-08-04T00:58:49;21.79;66.76
66144;SHT31;52947;50.842;6.084;2022-08-04T01:04:15;21.95;66.37
66144;SHT31;52947;50.842;6.084;2022-08-04T01:07:02;21.92;66.14
66144;SHT31;52947;50.842;6.084;2022-08-04T01:09:43;21.91;66.32
66144;SHT31;52947;50.842;6.084;2022-08-04T01:12:33;21.84;66.52
66144;SHT31;52947;50.842;6.084;2022-08-04T01:15:06;21.79;66.91
66144;SHT31;52947;50.842;6.084;2022-08-04T01:17:48;21.99;66.65
66144;SHT31;52947;50.842;6.084;2022-08-04T01:20:23;21.95;66.30
66144;SHT31;52947;50.842;6.084;2022-08-04T01:29:11;21.64;67.35
66144;SHT31;52947;50.842;6.084;2022-08-04T01:31:49;21.50;67.80
66144;SHT31;52947;50.842;6.084;2022-08-04T01:34:22;21.45;67.68
66144;SHT31;52947;50.842;6.084;2022-08-04T01:36:58;21.47;67.97
66144;SHT31;52947;50.842;6.084;2022-08-04T01:39:33;21.43;67.87
66144;SHT31;52947;50.842;6.084;2022-08-04T01:42:08;21.37;67.95
66144;SHT31;52947;50.842;6.084;2022-08-04T01:44:40;21.30;68.03
66144;SHT31;52947;50.842;6.084;2022-08-04T01:47:08;21.27;67.93
66144;SHT31;52947;50.842;6.084;2022-08-04T01:49:37;21.26;68.23
66144;SHT31;52947;50.842;6.084;2022-08-04T01:52:08;21.30;68.19
66144;SHT31;52947;50.842;6.084;2022-08-04T01:54:40;21.33;68.17
66144;SHT31;52947;50.842;6.084;2022-08-04T01:57:09;21.37;67.87
66144;SHT31;52947;50.842;6.084;2022-08-04T01:59:58;21.34;68.30
66144;SHT31;52947;50.842;6.084;2022-08-04T02:02:26;21.31;68.42
66144;SHT31;52947;50.842;6.084;2022-08-04T02:04:55;21.31;68.44
66144;SHT31;52947;50.842;6.084;2022-08-04T02:07:34;21.20;68.68
66144;SHT31;52947;50.842;6.084;2022-08-04T02:10:07;21.28;68.55
66144;SHT31;52947;50.842;6.084;2022-08-04T02:12:51;21.38;68.06
66144;SHT31;52947;50.842;6.084;2022-08-04T02:15:26;21.40;68.13
66144;SHT31;52947;50.842;6.084;2022-08-04T02:18:02;21.38;68.23
66144;SHT31;52947;50.842;6.084;2022-08-04T02:20:33;21.37;68.06
66144;SHT31;52947;50.842;6.084;2022-08-04T02:23:04;21.33;68.01
66144;SHT31;52947;50.842;6.084;2022-08-04T02:25:36;21.34;67.91
66144;SHT31;52947;50.842;6.084;2022-08-04T02:28:11;21.26;68.22
66144;SHT31;52947;50.842;6.084;2022-08-04T02:30:49;21.14;68.21
66144;SHT31;52947;50.842;6.084;2022-08-04T02:33:23;20.99;68.66
66144;SHT31;52947;50.842;6.084;2022-08-04T02:36:02;20.87;68.94
66144;SHT31;52947;50.842;6.084;2022-08-04T02:38:55;20.82;69.19
66144;SHT31;52947;50.842;6.084;2022-08-04T02:41:24;20.76;69.14
66144;SHT31;52947;50.842;6.084;2022-08-04T02:43:55;20.71;69.49
66144;SHT31;52947;50.842;6.084;2022-08-04T02:46:25;20.75;69.57
66144;SHT31;52947;50.842;6.084;2022-08-04T02:48:53;20.89;69.37
66144;SHT31;52947;50.842;6.084;2022-08-04T02:51:24;20.97;69.01
66144;SHT31;52947;50.842;6.084;2022-08-04T02:53:54;20.93;68.94
66144;SHT31;52947;50.842;6.084;2022-08-04T02:56:24;20.85;68.82
66144;SHT31;52947;50.842;6.084;2022-08-04T02:58:56;20.71;69.06
66144;SHT31;52947;50.842;6.084;2022-08-04T03:01:26;20.63;69.52
66144;SHT31;52947;50.842;6.084;2022-08-04T03:04:14;20.57;70.19
66144;SHT31;52947;50.842;6.084;2022-08-04T03:07:23;20.57;69.76
66144;SHT31;52947;50.842;6.084;2022-08-04T03:10:33;20.66;70.05
66144;SHT31;52947;50.842;6.084;2022-08-04T03:13:33;20.87;69.15
66144;SHT31;52947;50.842;6.084;2022-08-04T03:19:37;20.93;69.31
66144;SHT31;52947;50.842;6.084;2022-08-04T03:22:32;20.83;68.74
66144;SHT31;52947;50.842;6.084;2022-08-04T03:25:46;20.62;69.14
66144;SHT31;52947;50.842;6.084;2022-08-04T03:35:59;20.44;70.10
66144;SHT31;52947;50.842;6.084;2022-08-04T03:41:51;20.53;70.15
66144;SHT31;52947;50.842;6.084;2022-08-04T03:48:11;20.53;69.22
66144;SHT31;52947;50.842;6.084;2022-08-04T03:51:11;20.41;70.02
66144;SHT31;52947;50.842;6.084;2022-08-04T03:54:29;20.32;70.02
66144;SHT31;52947;50.842;6.084;2022-08-04T03:57:24;20.31;70.52
66144;SHT31;52947;50.842;6.084;2022-08-04T04:00:06;20.36;70.25
66144;SHT31;52947;50.842;6.084;2022-08-04T04:03:00;20.31;70.37
66144;SHT31;52947;50.842;6.084;2022-08-04T04:05:50;20.26;70.35
66144;SHT31;52947;50.842;6.084;2022-08-04T04:08:42;20.00;70.73
66144;SHT31;52947;50.842;6.084;2022-08-04T04:11:26;20.01;70.91
66144;SHT31;52947;50.842;6.084;2022-08-04T04:14:10;20.01;71.24
66144;SHT31;52947;50.842;6.084;2022-08-04T04:17:00;19.95;71.13
66144;SHT31;52947;50.842;6.084;2022-08-04T04:19:44;20.00;71.13
66144;SHT31;52947;50.842;6.084;2022-08-04T04:22:28;20.07;71.26
66144;SHT31;52947;50.842;6.084;2022-08-04T04:25:18;20.20;70.53
66144;SHT31;52947;50.842;6.084;2022-08-04T04:28:04;20.25;70.67
66144;SHT31;52947;50.842;6.084;2022-08-04T04:31:02;20.39;70.65
66144;SHT31;52947;50.842;6.084;2022-08-04T04:33:43;20.48;70.33
66144;SHT31;52947;50.842;6.084;2022-08-04T04:36:20;20.44;70.54
66144;SHT31;52947;50.842;6.084;2022-08-04T04:39:01;20.28;70.71
66144;SHT31;52947;50.842;6.084;2022-08-04T04:41:43;20.22;70.84
66144;SHT31;52947;50.842;6.084;2022-08-04T04:44:35;20.21;70.82
66144;SHT31;52947;50.842;6.084;2022-08-04T04:47:12;20.12;71.22
66144;SHT31;52947;50.842;6.084;2022-08-04T04:49:47;20.22;71.34
66144;SHT31;52947;50.842;6.084;2022-08-04T04:52:29;20.34;71.02
66144;SHT31;52947;50.842;6.084;2022-08-04T04:55:09;20.21;70.62
66144;SHT31;52947;50.842;6.084;2022-08-04T04:57:44;20.24;70.30
66144;SHT31;52947;50.842;6.084;2022-08-04T05:00:23;20.46;69.39
66144;SHT31;52947;50.842;6.084;2022-08-04T05:03:13;20.55;69.78
66144;SHT31;52947;50.842;6.084;2022-08-04T05:06:03;20.56;69.47
66144;SHT31;52947;50.842;6.084;2022-08-04T05:08:47;20.72;68.59
66144;SHT31;52947;50.842;6.084;2022-08-04T05:11:45;20.90;67.77
66144;SHT31;52947;50.842;6.084;2022-08-04T05:14:26;21.03;68.14
66144;SHT31;52947;50.842;6.084;2022-08-04T05:17:12;21.37;67.60
66144;SHT31;52947;50.842;6.084;2022-08-04T05:19:52;21.85;66.85
66144;SHT31;52947;50.842;6.084;2022-08-04T05:22:25;22.35;65.95
66144;SHT31;52947;50.842;6.084;2022-08-04T05:25:01;22.68;64.85
66144;SHT31;52947;50.842;6.084;2022-08-04T05:27:35;23.10;64.24
66144;SHT31;52947;50.842;6.084;2022-08-04T05:30:08;23.83;62.17
66144;SHT31;52947;50.842;6.084;2022-08-04T05:32:44;24.69;61.03
66144;SHT31;52947;50.842;6.084;2022-08-04T05:35:20;25.46;60.01
66144;SHT31;52947;50.842;6.084;2022-08-04T05:38:11;26.32;58.04
66144;SHT31;52947;50.842;6.084;2022-08-04T05:40:41;27.04;56.59
66144;SHT31;52947;50.842;6.084;2022-08-04T05:43:10;27.78;55.16
66144;SHT31;52947;50.842;6.084;2022-08-04T05:45:41;28.45;55.25
66144;SHT31;52947;50.842;6.084;2022-08-04T05:48:10;29.23;53.98
66144;SHT31;52947;50.842;6.084;2022-08-04T05:50:39;29.93;50.80
66144;SHT31;52947;50.842;6.084;2022-08-04T05:53:07;30.61;49.72
66144;SHT31;52947;50.842;6.084;2022-08-04T05:55:36;31.43;47.26
66144;SHT31;52947;50.842;6.084;2022-08-04T05:58:26;31.59;44.03
66144;SHT31;52947;50.842;6.084;2022-08-04T06:00:57;32.26;44.30
66144;SHT31;52947;50.842;6.084;2022-08-04T06:03:28;32.72;41.75
66144;SHT31;52947;50.842;6.084;2022-08-04T06:05:57;32.92;40.86
66144;SHT31;52947;50.842;6.084;2022-08-04T06:08:28;33.05;41.10
66144;SHT31;52947;50.842;6.084;2022-08-04T06:10:56;33.57;40.20
66144;SHT31;52947;50.842;6.084;2022-08-04T06:13:29;34.23;39.87
66144;SHT31;52947;50.842;6.084;2022-08-04T06:16:18;34.52;39.26
66144;SHT31;52947;50.842;6.084;2022-08-04T06:19:00;35.07;36.80
66144;SHT31;52947;50.842;6.084;2022-08-04T06:21:51;35.57;36.66
66144;SHT31;52947;50.842;6.084;2022-08-04T06:24:23;36.24;35.59
66144;SHT31;52947;50.842;6.084;2022-08-04T06:26:54;36.75;34.84
66144;SHT31;52947;50.842;6.084;2022-08-04T06:29:25;36.87;35.17
66144;SHT31;52947;50.842;6.084;2022-08-04T06:32:01;37.73;33.28
66144;SHT31;52947;50.842;6.084;2022-08-04T06:35:00;37.82;32.91
66144;SHT31;52947;50.842;6.084;2022-08-04T06:37:28;37.12;34.49
66144;SHT31;52947;50.842;6.084;2022-08-04T06:40:10;37.09;34.87
66144;SHT31;52947;50.842;6.084;2022-08-04T06:42:59;37.23;34.05
66144;SHT31;52947;50.842;6.084;2022-08-04T06:45:28;38.36;32.63
66144;SHT31;52947;50.842;6.084;2022-08-04T06:48:02;38.55;32.12
66144;SHT31;52947;50.842;6.084;2022-08-04T06:50:31;38.89;32.47
66144;SHT31;52947;50.842;6.084;2022-08-04T06:53:20;39.20;31.71
66144;SHT31;52947;50.842;6.084;2022-08-04T06:55:49;40.06;31.28
66144;SHT31;52947;50.842;6.084;2022-08-04T06:58:19;40.37;29.67
66144;SHT31;52947;50.842;6.084;2022-08-04T07:00:47;40.26;30.12
66144;SHT31;52947;50.842;6.084;2022-08-04T07:03:18;40.60;29.52
66144;SHT31;52947;50.842;6.084;2022-08-04T07:05:48;40.39;29.55
66144;SHT31;52947;50.842;6.084;2022-08-04T07:08:16;39.95;30.51
66144;SHT31;52947;50.842;6.084;2022-08-04T07:10:44;39.95;30.28
66144;SHT31;52947;50.842;6.084;2022-08-04T07:13:13;40.40;29.38
66144;SHT31;52947;50.842;6.084;2022-08-04T07:15:43;40.86;29.47
66144;SHT31;52947;50.842;6.084;2022-08-04T07:18:12;41.78;27.95
66144;SHT31;52947;50.842;6.084;2022-08-04T07:20:42;42.29;27.18
66144;SHT31;52947;50.842;6.084;2022-08-04T07:23:11;42.71;26.88
66144;SHT31;52947;50.842;6.084;2022-08-04T07:25:44;42.26;27.04
66144;SHT31;52947;50.842;6.084;2022-08-04T07:28:34;41.10;27.83
66144;SHT31;52947;50.842;6.084;2022-08-04T07:31:02;40.80;28.50
66144;SHT31;52947;50.842;6.084;2022-08-04T07:33:32;41.15;27.97
66144;SHT31;52947;50.842;6.084;2022-08-04T07:36:01;41.84;27.44
66144;SHT31;52947;50.842;6.084;2022-08-04T07:38:38;42.20;26.46
66144;SHT31;52947;50.842;6.084;2022-08-04T07:41:20;43.35;25.85
66144;SHT31;52947;50.842;6.084;2022-08-04T07:44:06;43.46;25.15
66144;SHT31;52947;50.842;6.084;2022-08-04T07:46:34;43.58;25.00
66144;SHT31;52947;50.842;6.084;2022-08-04T07:49:03;43.59;25.12
66144;SHT31;52947;50.842;6.084;2022-08-04T07:51:33;42.82;25.34
66144;SHT31;52947;50.842;6.084;2022-08-04T07:54:03;43.73;25.21
66144;SHT31;52947;50.842;6.084;2022-08-04T07:56:32;42.67;26.05
66144;SHT31;52947;50.842;6.084;2022-08-04T07:59:00;41.30;27.18
66144;SHT31;52947;50.842;6.084;2022-08-04T08:01:29;40.39;28.19
66144;SHT31;52947;50.842;6.084;2022-08-04T08:03:59;40.12;29.01
66144;SHT31;52947;50.842;6.084;2022-08-04T08:06:28;40.43;28.69
66144;SHT31;52947;50.842;6.084;2022-08-04T08:09:06;40.20;28.98
66144;SHT31;52947;50.842;6.084;2022-08-04T08:11:40;39.88;30.05
66144;SHT31;52947;50.842;6.084;2022-08-04T08:14:29;40.01;29.73
66144;SHT31;52947;50.842;6.084;2022-08-04T08:16:58;40.37;29.28
66144;SHT31;52947;50.842;6.084;2022-08-04T08:19:28;40.98;28.92
66144;SHT31;52947;50.842;6.084;2022-08-04T08:21:56;40.77;29.91
66144;SHT31;52947;50.842;6.084;2022-08-04T08:24:29;40.40;30.66
66144;SHT31;52947;50.842;6.084;2022-08-04T08:26:57;39.79;31.62
66144;SHT31;52947;50.842;6.084;2022-08-04T08:29:27;39.96;31.47
66144;SHT31;52947;50.842;6.084;2022-08-04T08:31:56;39.99;31.82
66144;SHT31;52947;50.842;6.084;2022-08-04T08:34:31;40.68;31.02
66144;SHT31;52947;50.842;6.084;2022-08-04T08:37:03;41.08;30.91
66144;SHT31;52947;50.842;6.084;2022-08-04T08:39:37;41.65;30.24
66144;SHT31;52947;50.842;6.084;2022-08-04T08:45:26;41.04;30.75
66144;SHT31;52947;50.842;6.084;2022-08-04T08:48:27;40.63;31.09
66144;SHT31;52947;50.842;6.084;2022-08-04T08:51:09;41.18;30.76
66144;SHT31;52947;50.842;6.084;2022-08-04T08:53:50;41.03;30.94
66144;SHT31;52947;50.842;6.084;2022-08-04T08:56:30;40.52;31.27
66144;SHT31;52947;50.842;6.084;2022-08-04T08:59:11;41.82;30.13
66144;SHT31;52947;50.842;6.084;2022-08-04T09:01:52;41.42;29.89
66144;SHT31;52947;50.842;6.084;2022-08-04T09:04:42;41.14;29.99
66144;SHT31;52947;50.842;6.084;2022-08-04T09:07:27;40.59;31.29
66144;SHT31;52947;50.842;6.084;2022-08-04T09:10:16;39.54;32.23
66144;SHT31;52947;50.842;6.084;2022-08-04T09:12:59;39.14;32.80
66144;SHT31;52947;50.842;6.084;2022-08-04T09:15:34;38.01;34.42
66144;SHT31;52947;50.842;6.084;2022-08-04T09:18:08;37.64;34.79
66144;SHT31;52947;50.842;6.084;2022-08-04T09:20:39;38.70;34.19
66144;SHT31;52947;50.842;6.084;2022-08-04T09:23:17;39.17;32.97
66144;SHT31;52947;50.842;6.084;2022-08-04T09:25:50;39.02;33.20
66144;SHT31;52947;50.842;6.084;2022-08-04T09:28:24;38.56;33.52
66144;SHT31;52947;50.842;6.084;2022-08-04T09:31:15;37.27;35.13
66144;SHT31;52947;50.842;6.084;2022-08-04T09:34:01;36.83;36.21
66144;SHT31;52947;50.842;6.084;2022-08-04T09:36:35;36.07;36.48
66144;SHT31;52947;50.842;6.084;2022-08-04T09:39:13;35.44;37.31
66144;SHT31;52947;50.842;6.084;2022-08-04T09:41:54;35.23;38.24
66144;SHT31;52947;50.842;6.084;2022-08-04T09:44:37;34.82;39.19
66144;SHT31;52947;50.842;6.084;2022-08-04T09:47:23;34.43;39.15
66144;SHT31;52947;50.842;6.084;2022-08-04T09:50:15;34.07;40.22
66144;SHT31;52947;50.842;6.084;2022-08-04T09:52:48;33.89;40.21
66144;SHT31;52947;50.842;6.084;2022-08-04T09:55:33;33.89;40.46
66144;SHT31;52947;50.842;6.084;2022-08-04T09:58:26;34.33;39.90
66144;SHT31;52947;50.842;6.084;2022-08-04T10:01:00;34.14;40.16
66144;SHT31;52947;50.842;6.084;2022-08-04T10:03:32;34.01;40.53
66144;SHT31;52947;50.842;6.084;2022-08-04T10:06:09;33.52;40.97
66144;SHT31;52947;50.842;6.084;2022-08-04T10:08:53;33.33;41.14
66144;SHT31;52947;50.842;6.084;2022-08-04T10:11:48;33.60;40.58
66144;SHT31;52947;50.842;6.084;2022-08-04T10:14:35;34.08;40.16
66144;SHT31;52947;50.842;6.084;2022-08-04T10:17:15;34.08;39.95
66144;SHT31;52947;50.842;6.084;2022-08-04T10:19:56;33.80;40.40
66144;SHT31;52947;50.842;6.084;2022-08-04T10:22:34;32.96;41.49
66144;SHT31;52947;50.842;6.084;2022-08-04T10:25:33;32.85;41.97
66144;SHT31;52947;50.842;6.084;2022-08-04T10:28:26;32.30;42.89
66144;SHT31;52947;50.842;6.084;2022-08-04T10:30:58;31.92;43.22
66144;SHT31;52947;50.842;6.084;2022-08-04T10:33:32;31.75;43.91
66144;SHT31;52947;50.842;6.084;2022-08-04T10:36:08;31.67;44.09
66144;SHT31;52947;50.842;6.084;2022-08-04T10:38:43;31.53;44.34
66144;SHT31;52947;50.842;6.084;2022-08-04T10:41:26;31.24;44.69
66144;SHT31;52947;50.842;6.084;2022-08-04T10:44:05;31.02;45.37
66144;SHT31;52947;50.842;6.084;2022-08-04T10:46:43;30.61;46.13
66144;SHT31;52947;50.842;6.084;2022-08-04T10:49:21;30.30;47.77
66144;SHT31;52947;50.842;6.084;2022-08-04T10:51:51;30.05;48.80
66144;SHT31;52947;50.842;6.084;2022-08-04T10:54:30;29.55;51.71
66144;SHT31;52947;50.842;6.084;2022-08-04T10:57:05;29.31;52.55
66144;SHT31;52947;50.842;6.084;2022-08-04T10:59:38;29.03;53.45
66144;SHT31;52947;50.842;6.084;2022-08-04T11:02:18;28.93;54.97
66144;SHT31;52947;50.842;6.084;2022-08-04T11:04:54;28.93;55.23
66144;SHT31;52947;50.842;6.084;2022-08-04T11:07:29;28.92;55.81
66144;SHT31;52947;50.842;6.084;2022-08-04T11:09:59;28.89;55.00
66144;SHT31;52947;50.842;6.084;2022-08-04T11:12:28;29.03;55.52
66144;SHT31;52947;50.842;6.084;2022-08-04T11:14:59;29.31;54.52
66144;SHT31;52947;50.842;6.084;2022-08-04T11:17:36;29.61;53.90
66144;SHT31;52947;50.842;6.084;2022-08-04T11:20:12;30.02;53.08
66144;SHT31;52947;50.842;6.084;2022-08-04T11:23:04;30.44;51.93
66144;SHT31;52947;50.842;6.084;2022-08-04T11:25:44;30.92;50.35
66144;SHT31;52947;50.842;6.084;2022-08-04T11:28:22;31.31;49.80
66144;SHT31;52947;50.842;6.084;2022-08-04T11:30:57;31.26;48.74
66144;SHT31;52947;50.842;6.084;2022-08-04T11:33:33;31.55;47.08
66144;SHT31;52947;50.842;6.084;2022-08-04T11:36:09;32.75;45.09
66144;SHT31;52947;50.842;6.084;2022-08-04T11:38:46;33.52;43.37
66144;SHT31;52947;50.842;6.084;2022-08-04T11:41:21;33.94;42.43
66144;SHT31;52947;50.842;6.084;2022-08-04T11:43:53;34.03;42.09
66144;SHT31;52947;50.842;6.084;2022-08-04T11:46:35;33.37;43.20
66144;SHT31;52947;50.842;6.084;2022-08-04T11:49:07;34.20;41.40
66144;SHT31;52947;50.842;6.084;2022-08-04T11:51:39;35.37;39.36
66144;SHT31;52947;50.842;6.084;2022-08-04T11:54:10;34.84;40.47
66144;SHT31;52947;50.842;6.084;2022-08-04T11:56:38;34.27;41.00
66144;SHT31;52947;50.842;6.084;2022-08-04T11:59:06;34.64;40.73
66144;SHT31;52947;50.842;6.084;2022-08-04T12:02:06;34.91;40.71
66144;SHT31;52947;50.842;6.084;2022-08-04T12:04:45;34.47;41.60
66144;SHT31;52947;50.842;6.084;2022-08-04T12:07:19;34.40;41.67
66144;SHT31;52947;50.842;6.084;2022-08-04T12:10:05;34.40;41.14
66144;SHT31;52947;50.842;6.084;2022-08-04T12:12:36;34.10;42.27
66144;SHT31;52947;50.842;6.084;2022-08-04T12:15:11;33.56;42.77
66144;SHT31;52947;50.842;6.084;2022-08-04T12:17:48;34.37;41.32
66144;SHT31;52947;50.842;6.084;2022-08-04T12:20:22;35.02;40.10
66144;SHT31;52947;50.842;6.084;2022-08-04T12:23:14;35.77;38.74
66144;SHT31;52947;50.842;6.084;2022-08-04T12:25:51;36.08;38.66
66144;SHT31;52947;50.842;6.084;2022-08-04T12:28:27;35.35;39.46
66144;SHT31;52947;50.842;6.084;2022-08-04T12:31:21;34.55;40.66
66144;SHT31;52947;50.842;6.084;2022-08-04T12:33:53;34.82;39.94
66144;SHT31;52947;50.842;6.084;2022-08-04T12:36:36;34.94;39.27
66144;SHT31;52947;50.842;6.084;2022-08-04T12:39:10;35.66;38.30
66144;SHT31;52947;50.842;6.084;2022-08-04T12:41:44;35.12;39.46
66144;SHT31;52947;50.842;6.084;2022-08-04T12:44:14;34.18;40.50
66144;SHT31;52947;50.842;6.084;2022-08-04T12:47:04;34.25;40.79
66144;SHT31;52947;50.842;6.084;2022-08-04T12:49:56;33.92;40.73
66144;SHT31;52947;50.842;6.084;2022-08-04T12:52:29;34.29;40.35
66144;SHT31;52947;50.842;6.084;2022-08-04T12:55:22;33.81;41.14
66144;SHT31;52947;50.842;6.084;2022-08-04T12:57:51;33.56;41.58
66144;SHT31;52947;50.842;6.084;2022-08-04T13:00:25;33.29;42.40
66144;SHT31;52947;50.842;6.084;2022-08-04T13:03:04;32.88;42.56
66144;SHT31;52947;50.842;6.084;2022-08-04T13:05:38;32.33;43.87
66144;SHT31;52947;50.842;6.084;2022-08-04T13:08:07;32.16;44.45
66144;SHT31;52947;50.842;6.084;2022-08-04T13:10:39;31.80;44.74
66144;SHT31;52947;50.842;6.084;2022-08-04T13:13:14;31.77;45.09
66144;SHT31;52947;50.842;6.084;2022-08-04T13:15:42;31.61;45.49
66144;SHT31;52947;50.842;6.084;2022-08-04T13:18:33;31.35;45.93
66144;SHT31;52947;50.842;6.084;2022-08-04T13:21:13;31.02;46.88
66144;SHT31;52947;50.842;6.084;2022-08-04T13:23:49;30.91;46.78
66144;SHT31;52947;50.842;6.084;2022-08-04T13:26:46;30.65;47.20
66144;SHT31;52947;50.842;6.084;2022-08-04T13:29:23;30.54;47.77
66144;SHT31;52947;50.842;6.084;2022-08-04T13:32:15;30.47;47.88
66144;SHT31;52947;50.842;6.084;2022-08-04T13:34:45;30.34;48.16
66144;SHT31;52947;50.842;6.084;2022-08-04T13:37:21;30.27;48.38
66144;SHT31;52947;50.842;6.084;2022-08-04T13:39:52;30.13;48.82
66144;SHT31;52947;50.842;6.084;2022-08-04T13:42:24;30.06;49.11
66144;SHT31;52947;50.842;6.084;2022-08-04T13:44:56;29.82;49.54
66144;SHT31;52947;50.842;6.084;2022-08-04T13:47:27;29.72;49.80
66144;SHT31;52947;50.842;6.084;2022-08-04T13:50:11;29.78;49.92
66144;SHT31;52947;50.842;6.084;2022-08-04T13:52:41;29.65;50.19
66144;SHT31;52947;50.842;6.084;2022-08-04T13:55:18;29.57;50.35
66144;SHT31;52947;50.842;6.084;2022-08-04T13:57:50;29.55;50.38
66144;SHT31;52947;50.842;6.084;2022-08-04T14:00:19;29.62;50.79
66144;SHT31;52947;50.842;6.084;2022-08-04T14:03:01;29.62;50.69
66144;SHT31;52947;50.842;6.084;2022-08-04T14:06:10;29.50;50.85
66144;SHT31;52947;50.842;6.084;2022-08-04T14:08:46;29.39;50.92
66144;SHT31;52947;50.842;6.084;2022-08-04T14:11:16;29.32;50.82
66144;SHT31;52947;50.842;6.084;2022-08-04T14:14:21;29.34;51.05
66144;SHT31;52947;50.842;6.084;2022-08-04T14:17:01;29.45;50.73
66144;SHT31;52947;50.842;6.084;2022-08-04T14:19:51;29.44;50.65
66144;SHT31;52947;50.842;6.084;2022-08-04T14:22:35;29.24;50.88
66144;SHT31;52947;50.842;6.084;2022-08-04T14:25:07;29.20;50.74
66144;SHT31;52947;50.842;6.084;2022-08-04T14:27:42;29.21;51.00
66144;SHT31;52947;50.842;6.084;2022-08-04T14:30:23;29.25;50.74
66144;SHT31;52947;50.842;6.084;2022-08-04T14:32:56;29.20;50.56
66144;SHT31;52947;50.842;6.084;2022-08-04T14:35:55;28.94;51.33
66144;SHT31;52947;50.842;6.084;2022-08-04T14:38:23;28.93;51.29
66144;SHT31;52947;50.842;6.084;2022-08-04T14:41:07;28.90;51.84
66144;SHT31;52947;50.842;6.084;2022-08-04T14:43:41;29.03;52.27
66144;SHT31;52947;50.842;6.084;2022-08-04T14:46:12;29.04;51.84
66144;SHT31;52947;50.842;6.084;2022-08-04T14:48:58;29.08;52.39
66144;SHT31;52947;50.842;6.084;2022-08-04T14:51:27;29.03;53.15
66144;SHT31;52947;50.842;6.084;2022-08-04T14:54:03;28.87;53.35
66144;SHT31;52947;50.842;6.084;2022-08-04T14:56:37;28.80;53.50
66144;SHT31;52947;50.842;6.084;2022-08-04T14:59:13;28.63;53.51
66144;SHT31;52947;50.842;6.084;2022-08-04T15:01:44;28.46;53.61
66144;SHT31;52947;50.842;6.084;2022-08-04T15:04:28;28.39;53.72
66144;SHT31;52947;50.842;6.084;2022-08-04T15:06:57;28.33;53.87
66144;SHT31;52947;50.842;6.084;2022-08-04T15:09:25;28.45;53.72
66144;SHT31;52947;50.842;6.084;2022-08-04T15:11:54;28.46;53.47
66144;SHT31;52947;50.842;6.084;2022-08-04T15:14:22;28.67;53.25
66144;SHT31;52947;50.842;6.084;2022-08-04T15:17:05;28.93;52.77
66144;SHT31;52947;50.842;6.084;2022-08-04T15:19:54;29.06;52.39
66144;SHT31;52947;50.842;6.084;2022-08-04T15:22:23;29.25;52.29
66144;SHT31;52947;50.842;6.084;2022-08-04T15:24:51;29.42;52.37
66144;SHT31;52947;50.842;6.084;2022-08-04T15:27:23;29.54;51.72
66144;SHT31;52947;50.842;6.084;2022-08-04T15:29:54;29.93;50.74
66144;SHT31;52947;50.842;6.084;2022-08-04T15:32:30;30.05;50.65
66144;SHT31;52947;50.842;6.084;2022-08-04T15:35:02;30.12;50.54
66144;SHT31;52947;50.842;6.084;2022-08-04T15:37:38;30.26;50.57
66144;SHT31;52947;50.842;6.084;2022-08-04T15:40:11;30.40;50.48
66144;SHT31;52947;50.842;6.084;2022-08-04T15:42:45;30.47;49.63
66144;SHT31;52947;50.842;6.084;2022-08-04T15:45:19;30.46;49.80
66144;SHT31;52947;50.842;6.084;2022-08-04T15:51:07;30.47;49.52
66144;SHT31;52947;50.842;6.084;2022-08-04T15:56:52;30.32;50.21
66144;SHT31;52947;50.842;6.084;2022-08-04T16:00:00;30.54;50.08
66144;SHT31;52947;50.842;6.084;2022-08-04T16:02:41;30.65;49.65
66144;SHT31;52947;50.842;6.084;2022-08-04T16:05:33;30.65;50.10
66144;SHT31;52947;50.842;6.084;2022-08-04T16:08:15;30.54;50.27
66144;SHT31;52947;50.842;6.084;2022-08-04T16:10:46;30.60;50.55
66144;SHT31;52947;50.842;6.084;2022-08-04T16:13:15;30.61;50.18
66144;SHT31;52947;50.842;6.084;2022-08-04T16:15:51;30.53;49.96
66144;SHT31;52947;50.842;6.084;2022-08-04T16:18:21;30.19;50.15
66144;SHT31;52947;50.842;6.084;2022-08-04T16:21:06;29.76;51.39
66144;SHT31;52947;50.842;6.084;2022-08-04T16:23:53;29.73;51.29
66144;SHT31;52947;50.842;6.084;2022-08-04T16:26:46;29.61;51.31
66144;SHT31;52947;50.842;6.084;2022-08-04T16:29:29;29.58;51.49
66144;SHT31;52947;50.842;6.084;2022-08-04T16:32:20;29.45;53.56
66144;SHT31;52947;50.842;6.084;2022-08-04T16:34:54;29.47;54.10
66144;SHT31;52947;50.842;6.084;2022-08-04T16:37:33;29.24;54.62
66144;SHT31;52947;50.842;6.084;2022-08-04T16:40:23;29.23;54.45
66144;SHT31;52947;50.842;6.084;2022-08-04T16:42:59;28.92;55.52
66144;SHT31;52947;50.842;6.084;2022-08-04T16:45:45;28.93;55.44
66144;SHT31;52947;50.842;6.084;2022-08-04T16:48:14;28.77;56.04
66144;SHT31;52947;50.842;6.084;2022-08-04T16:50:51;28.67;55.94
66144;SHT31;52947;50.842;6.084;2022-08-04T16:53:22;28.70;56.34
66144;SHT31;52947;50.842;6.084;2022-08-04T16:56:11;28.41;56.93
66144;SHT31;52947;50.842;6.084;2022-08-04T16:58:41;28.51;56.98
66144;SHT31;52947;50.842;6.084;2022-08-04T17:01:20;28.41;56.99
66144;SHT31;52947;50.842;6.084;2022-08-04T17:04:01;28.52;56.93
66144;SHT31;52947;50.842;6.084;2022-08-04T17:06:33;28.42;57.20
66144;SHT31;52947;50.842;6.084;2022-08-04T17:09:05;28.46;56.75
66144;SHT31;52947;50.842;6.084;2022-08-04T17:11:35;28.43;56.82
66144;SHT31;52947;50.842;6.084;2022-08-04T17:14:03;28.22;57.40
66144;SHT31;52947;50.842;6.084;2022-08-04T17:16:32;28.18;57.28